createdAt,value
2018-03-22T16:57:27.721Z,27.15
2018-03-22T16:59:58.142Z,31.70
2018-03-22T17:02:27.556Z,31.95
2018-03-22T17:04:57.715Z,27.87
2018-03-22T17:07:27.176Z,27.92
2018-03-22T17:09:57.469Z,29.73
2018-03-22T17:12:27.794Z,25.80
2018-03-22T17:14:58.709Z,29.70
2018-03-22T17:17:28.108Z,30.50
2018-03-22T17:19:57.789Z,28.80
2018-03-22T17:22:28.195Z,30.90
2018-03-22T17:24:58.494Z,29.60
2018-03-22T17:27:27.855Z,28.50
2018-03-22T17:29:57.230Z,32.20
2018-03-22T17:32:27.532Z,28.70
2018-03-22T17:34:59.563Z,30.42
2018-03-22T17:37:29.218Z,28.12
2018-03-22T17:39:59.769Z,27.60
2018-03-22T17:42:29.203Z,29.52
2018-03-22T17:44:58.654Z,27.55
2018-03-22T17:47:28.912Z,25.77
2018-03-22T17:49:58.374Z,27.05
2018-03-22T17:52:31.836Z,25.52
2018-03-22T17:55:02.366Z,26.45
2018-03-22T17:57:32.219Z,23.80
2018-03-22T18:00:02.486Z,26.58
2018-03-22T18:02:31.816Z,24.23
2018-03-22T18:05:01.544Z,26.52
2018-03-22T18:07:31.576Z,23.67
2018-03-22T18:10:01.001Z,23.95
2018-03-22T18:12:32.284Z,24.60
2018-03-22T18:15:02.437Z,25.27
2018-03-22T18:17:32.769Z,23.05
2018-03-22T18:20:02.781Z,23.23
2018-03-22T18:22:32.935Z,24.00
2018-03-22T18:25:02.489Z,24.42
2018-03-22T18:27:31.863Z,24.05
2018-03-22T18:30:01.418Z,23.87
2018-03-22T18:32:32.219Z,27.80
2018-03-22T18:35:01.782Z,26.20
2018-03-22T18:37:31.312Z,24.95
2018-03-22T18:40:01.131Z,26.15
2018-03-22T18:42:30.539Z,24.17
2018-03-22T18:45:00.145Z,24.45
2018-03-22T18:47:29.464Z,24.95
2018-03-22T18:49:58.913Z,24.95
2018-03-22T18:52:28.563Z,24.75
2018-03-22T18:54:59.158Z,25.77
2018-03-22T18:57:29.795Z,25.65
2018-03-22T18:59:59.190Z,28.40
2018-03-22T19:02:29.001Z,25.90
2018-03-22T19:04:59.216Z,27.55
2018-03-22T19:07:28.824Z,25.85
2018-03-22T19:09:58.284Z,27.98
2018-03-22T19:12:27.864Z,27.50
2018-03-22T19:14:57.616Z,25.70
2018-03-22T19:17:28.151Z,24.12
2018-03-22T19:20:04.308Z,24.77
2018-03-22T19:22:34.647Z,27.45
2018-03-22T19:25:05.172Z,26.23
2018-03-22T19:27:35.507Z,27.37
2018-03-22T19:30:05.707Z,24.45
2018-03-22T19:32:35.892Z,27.23
2018-03-22T19:35:05.401Z,25.55
2018-03-22T19:37:34.950Z,27.05
2018-03-22T19:40:05.149Z,27.23
2018-03-22T19:42:34.540Z,27.10
2018-03-22T19:45:04.396Z,26.02
2018-03-22T19:47:33.863Z,27.98
2018-03-22T19:50:04.145Z,27.40
2018-03-22T19:52:33.833Z,25.05
2018-03-22T19:55:03.264Z,26.92
2018-03-22T19:57:33.582Z,26.90
2018-03-22T20:00:03.093Z,26.45
2018-03-22T20:02:33.845Z,27.65
2018-03-22T20:05:03.485Z,25.83
2018-03-22T20:07:33.741Z,28.20
2018-03-22T20:10:03.383Z,27.00
2018-03-22T20:12:33.004Z,28.15
2018-03-22T20:15:02.703Z,27.30
2018-03-22T20:17:32.348Z,27.42
2018-03-22T20:20:02.637Z,28.55
2018-03-22T20:22:35.191Z,29.08
2018-03-22T20:25:04.704Z,28.33
2018-03-22T20:27:33.999Z,27.77
2018-03-22T20:30:03.465Z,29.40
2018-03-22T20:32:32.924Z,29.65
2018-03-22T20:35:03.356Z,29.65
2018-03-22T20:37:33.921Z,29.45
2018-03-22T20:40:04.393Z,29.90
2018-03-22T20:42:33.974Z,29.45
2018-03-22T20:45:03.502Z,30.83
2018-03-22T20:47:33.004Z,29.25
2018-03-22T20:50:02.532Z,30.90
2018-03-22T20:52:31.879Z,28.65
2018-03-22T20:55:01.287Z,29.90
2018-03-22T20:57:30.711Z,29.98
2018-03-22T21:00:00.951Z,28.80
2018-03-22T21:02:30.408Z,30.55
2018-03-22T21:05:00.700Z,30.25
2018-03-22T21:07:30.888Z,31.10
2018-03-22T21:10:01.289Z,29.27
2018-03-22T21:12:30.731Z,31.55
2018-03-22T21:15:00.142Z,31.10
2018-03-22T21:17:29.541Z,30.50
2018-03-22T21:19:58.989Z,31.65
2018-03-22T21:22:29.195Z,30.52
2018-03-22T21:24:59.492Z,31.73
2018-03-22T21:27:28.771Z,30.73
2018-03-22T21:29:58.644Z,31.83
2018-03-22T21:32:28.863Z,31.52
2018-03-22T21:34:58.993Z,30.12
2018-03-22T21:37:29.236Z,30.67
2018-03-22T21:39:59.282Z,28.83
2018-03-22T21:42:28.742Z,26.65
2018-03-22T21:44:58.164Z,27.52
2018-03-22T21:47:34.251Z,28.25
2018-03-22T21:50:03.721Z,27.13
2018-03-22T21:52:51.215Z,28.15
2018-03-22T21:55:21.287Z,29.70
2018-03-22T21:57:50.792Z,30.42
2018-03-22T22:00:20.347Z,31.85
2018-03-22T22:02:50.496Z,30.92
2018-03-22T22:05:20.126Z,26.92
2018-03-22T22:07:49.555Z,28.70
2018-03-22T22:10:18.944Z,28.23
2018-03-22T22:12:48.499Z,28.58
2018-03-22T22:15:17.969Z,29.35
2018-03-22T22:17:47.528Z,28.05
2018-03-22T22:20:18.346Z,29.55
2018-03-22T22:22:47.799Z,26.55
2018-03-22T22:25:17.258Z,26.87
2018-03-22T22:27:46.773Z,26.85
2018-03-22T22:30:16.308Z,28.12
2018-03-22T22:32:45.820Z,23.73
2018-03-22T22:35:15.334Z,24.02
2018-03-22T22:37:47.298Z,23.98
2018-03-22T22:40:16.834Z,24.42
2018-03-22T22:42:47.027Z,23.40
2018-03-22T22:45:16.578Z,23.23
2018-03-22T22:47:45.919Z,24.00
2018-03-22T22:50:15.284Z,22.35
2018-03-22T22:52:44.663Z,22.85
2018-03-22T22:55:14.996Z,23.15
2018-03-22T22:57:44.705Z,22.15
2018-03-22T23:00:14.084Z,22.23
2018-03-22T23:02:44.385Z,22.52
2018-03-22T23:05:14.034Z,21.95
2018-03-22T23:07:44.615Z,23.20
2018-03-22T23:10:14.113Z,24.37
2018-03-22T23:12:43.672Z,23.08
2018-03-22T23:15:14.216Z,25.95
2018-03-22T23:17:44.157Z,24.08
2018-03-22T23:20:13.639Z,22.70
2018-03-22T23:22:43.176Z,21.70
2018-03-22T23:25:12.728Z,22.75
2018-03-22T23:27:42.982Z,26.10
2018-03-22T23:30:12.463Z,24.75
2018-03-22T23:32:42.641Z,27.30
2018-03-22T23:35:12.694Z,24.80
2018-03-22T23:37:43.515Z,23.58
2018-03-22T23:40:14.002Z,23.60
2018-03-22T23:42:43.559Z,24.63
2018-03-22T23:45:14.079Z,25.30
2018-03-22T23:47:43.667Z,23.50
2018-03-22T23:50:13.360Z,26.25
2018-03-22T23:52:43.046Z,27.90
2018-03-22T23:55:12.731Z,29.52
2018-03-22T23:57:43.256Z,29.77
